Time;durP1;ratioP1;P1;durP2;ratioP2;P2;SDS_P1;SDS_P2;PMS_P1;PMS_P2;Temp;Humidity;BMP_temperature;BMP_pressure;BME280_temperature;BME280_humidity;BME280_pressure;Samples;Min_cycle;Max_cycle;Signal;HPM_P1;HPM_P2
2023/05/09 00:01:18;;;;;;;82.70;66.90;;;;;;;6.74;59.32;101647.52;108922;1275;22778;-81
2023/05/09 00:03:46;;;;;;;81.40;66.20;;;;;;;6.73;59.34;101640.09;109225;1263;23044;-81
2023/05/09 00:06:14;;;;;;;77.50;64.20;;;;;;;6.70;59.18;101638.02;109272;1276;22623;-80
2023/05/09 00:08:42;;;;;;;84.60;67.90;;;;;;;6.66;59.37;101639.92;108983;1276;21981;-82
2023/05/09 00:11:10;;;;;;;75.80;66.40;;;;;;;6.61;59.11;101638.02;108941;1282;23695;-81
2023/05/09 00:13:38;;;;;;;87.20;69.40;;;;;;;6.56;59.16;101633.17;108854;1282;22028;-81
2023/05/09 00:16:07;;;;;;;78.40;64.80;;;;;;;6.52;59.18;101628.34;108845;1277;23853;-81
2023/05/09 00:18:36;;;;;;;83.90;64.30;;;;;;;6.49;59.16;101631.98;109135;1277;23519;-82
2023/05/09 00:21:04;;;;;;;78.20;64.90;;;;;;;6.45;59.30;101631.80;109141;1277;23004;-80
2023/05/09 00:23:32;;;;;;;79.30;66.80;;;;;;;6.41;59.48;101631.63;109285;1275;21998;-82
2023/05/09 00:26:00;;;;;;;85.00;69.40;;;;;;;6.38;59.62;101630.93;109243;1275;23006;-81
2023/05/09 00:28:28;;;;;;;75.30;65.50;;;;;;;6.37;59.70;101631.80;109207;1272;22004;-82
2023/05/09 00:30:56;;;;;;;82.00;65.20;;;;;;;6.35;59.83;101631.62;109636;1272;21990;-82
2023/05/09 00:33:25;;;;;;;83.80;66.00;;;;;;;6.32;59.92;101628.51;109587;1272;21982;-81
2023/05/09 00:35:54;;;;;;;81.40;66.00;;;;;;;6.29;59.95;101624.36;109659;1272;22741;-81
2023/05/09 00:38:22;;;;;;;79.00;65.10;;;;;;;6.28;60.21;101622.27;109067;1279;21987;-80
2023/05/09 00:40:50;;;;;;;77.00;61.80;;;;;;;6.27;60.24;101620.72;109005;1278;22445;-83
2023/05/09 00:43:20;;;;;;;68.60;92.30;;;;;;;6.27;60.22;101620.56;108980;1278;21981;-82
2023/05/09 00:45:48;;;;;;;71.70;58.90;;;;;;;6.27;60.41;101617.27;109065;1276;22000;-82
2023/05/09 00:48:16;;;;;;;78.00;63.40;;;;;;;6.26;60.34;101617.79;109151;1276;22940;-82
2023/05/09 00:50:45;;;;;;;81.10;67.40;;;;;;;6.23;60.34;101615.20;109293;1276;23416;-82
2023/05/09 00:53:14;;;;;;;82.40;61.60;;;;;;;6.18;60.58;101616.05;109365;1276;22004;-82
2023/05/09 00:55:41;;;;;;;65.80;57.00;;;;;;;6.16;60.52;101614.15;109335;1271;23082;-81
2023/05/09 00:58:10;;;;;;;69.60;58.30;;;;;;;6.14;60.55;101611.56;109791;1270;22363;-81
2023/05/09 01:00:54;;;;;;;65.60;56.50;;;;;;;6.13;60.53;101612.42;109898;1271;22010;-83
2023/05/09 01:03:22;;;;;;;63.20;52.30;;;;;;;6.11;60.70;101611.73;109732;1268;22765;-83
2023/05/09 01:06:24;;;;;;;58.80;50.90;;;;;;;6.12;60.69;101612.25;109480;1270;21979;-83
2023/05/09 01:09:22;;;;;;;58.80;47.60;;;;;;;6.11;60.69;101612.27;110030;1270;22859;-81
2023/05/09 01:12:35;;;;;;;64.90;48.30;;;;;;;6.10;60.80;101610.19;109955;1271;22065;-82
2023/05/09 01:15:31;;;;;;;72.90;53.40;;;;;;;6.08;60.71;101611.56;109886;1270;23055;-82
2023/05/09 01:18:25;;;;;;;57.80;46.40;;;;;;;6.05;60.64;101609.83;109617;1271;23009;-81
2023/05/09 01:21:10;;;;;;;61.70;47.60;;;;;;;6.01;60.73;101606.89;110136;1271;21978;-82
2023/05/09 01:23:44;;;;;;;54.10;46.20;;;;;;;5.98;60.67;101604.98;110022;1257;22009;-82
2023/05/09 01:26:22;;;;;;;54.70;46.10;;;;;;;5.94;60.57;101601.33;109680;1270;21978;-80
2023/05/09 01:29:47;;;;;;;58.50;44.40;;;;;;;5.92;60.55;101598.55;110012;1270;23039;-81
2023/05/09 01:32:29;;;;;;;53.40;43.80;;;;;;;5.86;60.71;101599.41;109679;1270;21984;-82
2023/05/09 01:35:01;;;;;;;54.50;43.90;;;;;;;5.84;60.81;101600.95;109876;1270;22055;-81
2023/05/09 01:37:35;;;;;;;53.40;44.50;;;;;;;5.84;60.72;101603.37;109655;1270;22037;-81
2023/05/09 01:40:16;;;;;;;54.40;43.50;;;;;;;5.85;60.91;101602.17;109840;1270;21981;-81
2023/05/09 01:42:57;;;;;;;54.90;44.80;;;;;;;5.82;60.74;101603.55;109754;1270;22992;-82
2023/05/09 01:45:26;;;;;;;53.40;42.80;;;;;;;5.81;60.87;101600.08;109708;1272;22006;-82
2023/05/09 01:47:57;;;;;;;56.10;43.20;;;;;;;5.82;60.93;101596.27;109447;1272;23667;-82
2023/05/09 01:50:28;;;;;;;51.80;42.90;;;;;;;5.84;61.00;101591.79;109804;1271;21967;-81
2023/05/09 01:52:58;;;;;;;51.50;40.80;;;;;;;5.86;60.99;101590.95;109614;1272;22005;-82
2023/05/09 01:55:31;;;;;;;55.70;44.20;;;;;;;5.88;61.09;101590.42;109584;1272;22002;-81
2023/05/09 01:58:02;;;;;;;55.30;43.80;;;;;;;5.86;61.02;101587.14;109759;1272;23712;-81
2023/05/09 02:00:34;;;;;;;52.50;42.70;;;;;;;5.86;61.05;101583.34;109531;1272;22065;-81
2023/05/09 02:03:03;;;;;;;52.20;43.40;;;;;;;5.85;61.02;101578.32;109547;1270;21979;-82
2023/05/09 02:05:33;;;;;;;56.90;46.20;;;;;;;5.83;61.15;101579.36;110142;1270;24305;-83
2023/05/09 02:08:02;;;;;;;52.50;44.00;;;;;;;5.80;60.90;101579.87;109735;1270;21978;-82
2023/05/09 02:10:34;;;;;;;53.50;42.80;;;;;;;5.73;60.82;101581.05;109826;1271;21989;-82
2023/05/09 02:13:03;;;;;;;53.70;43.20;;;;;;;5.67;60.97;101576.57;109641;1271;21827;-80
2023/05/09 02:15:32;;;;;;;51.20;42.50;;;;;;;5.64;61.08;101575.17;109857;1269;23755;-81
2023/05/09 02:18:00;;;;;;;54.30;44.10;;;;;;;5.63;61.21;101581.22;109442;1274;23046;-82
2023/05/09 02:20:32;;;;;;;55.20;40.20;;;;;;;5.63;61.15;101580.53;109469;1274;22018;-82
2023/05/09 02:23:00;;;;;;;55.00;40.30;;;;;;;5.61;61.16;101576.89;109336;1278;24590;-82
2023/05/09 02:25:28;;;;;;;57.10;41.40;;;;;;;5.62;61.20;101578.10;109377;1277;21990;-80
2023/05/09 02:27:58;;;;;;;49.00;41.20;;;;;;;5.62;61.22;101581.91;109118;1278;21995;-81
2023/05/09 02:30:32;;;;;;;45.70;40.70;;;;;;;5.63;61.10;101581.73;109101;1277;21993;-82
2023/05/09 02:33:03;;;;;;;54.80;42.50;;;;;;;5.62;61.17;101581.04;109228;1278;22014;-87
2023/05/09 02:35:36;;;;;;;52.90;42.70;;;;;;;5.61;61.13;101578.62;109457;1270;22577;-87
2023/05/09 02:38:13;;;;;;;50.90;40.90;;;;;;;5.60;61.23;101582.77;109613;1274;21987;-87
2023/05/09 02:40:47;;;;;;;50.40;41.70;;;;;;;5.58;61.14;101574.48;109930;1270;21978;-84
2023/05/09 02:43:15;;;;;;;53.40;39.00;;;;;;;5.57;61.21;101573.44;110161;1269;22468;-82
2023/05/09 02:45:46;;;;;;;46.70;40.10;;;;;;;5.57;61.28;101572.40;110159;1270;23069;-83
2023/05/09 02:48:14;;;;;;;44.40;37.20;;;;;;;5.54;61.31;101570.84;109629;1271;22062;-82
2023/05/09 02:50:45;;;;;;;42.20;35.10;;;;;;;5.52;61.34;101572.20;109525;1276;22005;-81
2023/05/09 02:53:13;;;;;;;47.00;37.60;;;;;;;5.49;61.38;101575.48;109246;1276;22891;-81
2023/05/09 02:55:41;;;;;;;46.20;37.40;;;;;;;5.45;61.38;101571.16;109193;1276;21974;-81
2023/05/09 02:58:09;;;;;;;47.90;37.90;;;;;;;5.42;61.61;101570.46;109245;1273;22040;-81
2023/05/09 03:00:43;;;;;;;48.40;37.00;;;;;;;5.38;61.50;101566.14;109423;1274;22043;-82
2023/05/09 03:03:12;;;;;;;48.30;37.40;;;;;;;5.35;61.57;101564.91;109116;1276;22032;-81
2023/05/09 03:05:42;;;;;;;43.70;36.30;;;;;;;5.33;61.62;101561.62;109189;1274;22016;-81
2023/05/09 03:08:10;;;;;;;42.10;37.50;;;;;;;5.31;61.56;101564.38;109255;1275;22069;-82
2023/05/09 03:10:38;;;;;;;42.70;36.90;;;;;;;5.27;61.61;101564.89;109212;1275;21993;-82
2023/05/09 03:13:07;;;;;;;49.40;38.30;;;;;;;5.27;61.84;101564.19;109321;1275;23050;-81
2023/05/09 03:15:35;;;;;;;51.00;38.80;;;;;;;5.26;61.84;101562.98;108997;1276;21991;-81
2023/05/09 03:18:04;;;;;;;48.20;39.50;;;;;;;5.27;61.94;101564.37;109194;1276;22004;-81
2023/05/09 03:20:32;;;;;;;45.60;39.70;;;;;;;5.29;61.86;101565.41;109104;1276;22510;-84
2023/05/09 03:23:00;;;;;;;44.90;38.50;;;;;;;5.30;61.83;101569.05;109327;1276;22067;-85
2023/05/09 03:25:28;;;;;;;47.80;39.50;;;;;;;5.30;61.94;101566.96;109313;1276;22133;-83
2023/05/09 03:27:56;;;;;;;97.30;87.30;;;;;;;5.33;62.03;101568.54;109413;1270;22031;-83
2023/05/09 03:30:26;;;;;;;53.90;48.30;;;;;;;5.38;62.01;101571.98;109165;1278;23060;-82
2023/05/09 03:32:55;;;;;;;62.80;54.40;;;;;;;5.41;62.03;101570.63;108932;1274;22494;-81
2023/05/09 03:35:23;;;;;;;57.60;46.10;;;;;;;5.45;62.04;101572.89;109384;1274;22460;-82
2023/05/09 03:37:51;;;;;;;48.10;41.20;;;;;;;5.48;62.07;101575.83;109437;1274;22039;-82
2023/05/09 03:40:19;;;;;;;47.80;40.00;;;;;;;5.53;62.19;101574.29;109525;1274;21987;-83
2023/05/09 03:42:51;;;;;;;46.00;40.70;;;;;;;5.57;62.23;101570.67;109335;1274;22019;-82
2023/05/09 03:45:19;;;;;;;47.60;39.60;;;;;;;5.62;62.26;101570.67;109337;1274;22713;-81
2023/05/09 03:47:47;;;;;;;44.10;38.50;;;;;;;5.67;62.33;101568.79;109396;1271;21989;-83
2023/05/09 03:50:16;;;;;;;43.70;38.10;;;;;;;5.73;62.37;101567.06;109646;1271;23709;-82
2023/05/09 03:52:44;;;;;;;46.10;38.30;;;;;;;5.83;62.53;101570.89;109613;1271;22000;-83
2023/05/09 03:55:14;;;;;;;41.80;36.70;;;;;;;5.95;62.51;101570.23;109647;1271;21997;-82
2023/05/09 03:57:42;;;;;;;43.00;36.40;;;;;;;6.11;62.69;101570.24;109377;1275;22073;-82
2023/05/09 04:00:13;;;;;;;44.00;34.20;;;;;;;6.28;62.51;101573.02;109337;1275;21983;-82
2023/05/09 04:02:41;;;;;;;42.10;33.50;;;;;;;6.42;62.08;101569.89;109165;1275;22095;-83
2023/05/09 04:05:15;;;;;;;40.50;33.80;;;;;;;6.52;61.68;101572.64;109452;1275;22907;-83
2023/05/09 04:07:45;;;;;;;37.40;33.10;;;;;;;6.62;61.20;101574.88;109554;1274;21994;-84
2023/05/09 04:10:15;;;;;;;39.20;32.40;;;;;;;6.70;61.00;101571.05;109467;1273;22027;-84
2023/05/09 04:12:43;;;;;;;38.60;33.00;;;;;;;6.78;60.59;101571.90;109592;1275;21986;-84
2023/05/09 04:15:12;;;;;;;39.10;33.40;;;;;;;6.88;60.45;101573.08;109280;1276;22014;-83
2023/05/09 04:17:41;;;;;;;37.50;33.40;;;;;;;7.00;60.35;101570.28;109423;1276;22028;-82
2023/05/09 04:20:11;;;;;;;37.10;32.90;;;;;;;7.08;60.20;101567.65;109465;1276;21994;-84
2023/05/09 04:22:40;;;;;;;39.20;35.00;;;;;;;7.23;59.98;101576.08;109419;1278;22983;-84
2023/05/09 04:25:13;;;;;;;40.80;35.80;;;;;;;7.45;60.06;101572.50;109308;1276;23779;-83
2023/05/09 04:27:42;;;;;;;39.00;34.40;;;;;;;7.69;59.85;101572.36;109270;1280;22319;-84
2023/05/09 04:30:11;;;;;;;42.40;35.10;;;;;;;7.94;59.69;101573.73;109089;1285;22011;-85
2023/05/09 04:32:44;;;;;;;39.70;35.50;;;;;;;8.21;59.19;101574.05;108802;1283;22986;-83
2023/05/09 04:35:13;;;;;;;37.80;33.70;;;;;;;8.51;58.86;101574.50;108887;1283;22508;-81
2023/05/09 04:43:38;;;;;;;42.60;35.60;;;;;;;9.71;58.42;101576.52;108875;1284;23724;-84
2023/05/09 04:46:07;;;;;;;42.30;34.50;;;;;;;10.26;57.50;101572.90;108974;1283;22333;-83
2023/05/09 04:48:35;;;;;;;37.70;31.70;;;;;;;10.67;56.51;101571.13;108894;1283;23012;-82
2023/05/09 04:51:03;;;;;;;33.00;28.60;;;;;;;11.01;54.74;101569.95;108997;1283;24341;-83
2023/05/09 04:53:31;;;;;;;37.00;29.00;;;;;;;11.14;53.59;101568.48;108735;1283;22072;-83
2023/05/09 04:55:59;;;;;;;28.10;25.20;;;;;;;11.43;53.31;101570.82;109252;1277;22985;-82
2023/05/09 04:58:27;;;;;;;29.10;26.00;;;;;;;11.73;52.81;101568.94;108722;1282;22003;-84
2023/05/09 05:00:55;;;;;;;25.40;21.60;;;;;;;11.94;51.61;101567.78;108959;1282;21984;-83
2023/05/09 05:03:23;;;;;;;19.70;17.60;;;;;;;12.10;50.66;101567.39;109079;1276;22779;-82
2023/05/09 05:05:51;;;;;;;17.60;14.80;;;;;;;12.15;49.29;101571.45;109323;1275;22459;-81
2023/05/09 05:08:19;;;;;;;19.20;15.50;;;;;;;12.13;48.37;101573.41;109150;1276;23743;-82
2023/05/09 05:10:48;;;;;;;20.80;15.70;;;;;;;12.14;48.32;101569.91;109170;1275;22002;-81
2023/05/09 05:13:16;;;;;;;16.00;13.70;;;;;;;12.24;48.31;101569.13;109257;1276;23005;-82
2023/05/09 05:15:47;;;;;;;18.70;12.30;;;;;;;12.47;48.28;101568.88;109362;1270;22762;-82
2023/05/09 05:18:15;;;;;;;18.70;13.40;;;;;;;12.72;48.16;101570.84;109723;1270;22516;-82
2023/05/09 05:20:43;;;;;;;15.30;12.40;;;;;;;12.91;47.17;101568.39;109766;1270;21982;-81
2023/05/09 05:23:11;;;;;;;16.60;12.60;;;;;;;13.06;46.97;101567.79;110257;1270;21985;-82
2023/05/09 05:25:39;;;;;;;14.70;11.90;;;;;;;13.30;46.75;101565.89;109988;1270;21942;-82
2023/05/09 05:28:06;;;;;;;13.50;10.60;;;;;;;13.56;46.09;101567.23;109752;1270;22743;-82
2023/05/09 05:30:34;;;;;;;10.60;8.90;;;;;;;13.72;45.61;101568.30;109920;1271;22002;-82
2023/05/09 05:33:02;;;;;;;13.70;11.30;;;;;;;13.87;45.21;101566.95;110027;1271;21996;-82
2023/05/09 05:35:31;;;;;;;11.70;9.60;;;;;;;14.00;44.33;101564.61;109518;1271;22454;-82
2023/05/09 05:38:00;;;;;;;15.80;10.90;;;;;;;14.22;44.71;101565.77;109414;1274;22005;-82
2023/05/09 05:40:29;;;;;;;11.60;9.40;;;;;;;14.44;43.43;101567.34;109497;1274;23695;-82
2023/05/09 05:43:00;;;;;;;11.40;9.50;;;;;;;14.54;43.03;101565.23;109622;1274;21964;-81
2023/05/09 05:45:30;;;;;;;10.80;9.30;;;;;;;14.67;42.34;101569.36;109580;1275;22399;-82
2023/05/09 05:48:01;;;;;;;10.70;9.60;;;;;;;14.79;42.66;101564.39;109554;1273;22001;-82
2023/05/09 05:50:35;;;;;;;12.10;8.60;;;;;;;14.94;42.62;101556.29;109257;1275;21964;-82
2023/05/09 05:53:07;;;;;;;;;;;;;;;15.15;41.79;101554.80;109759;1271;23840;-81
2023/05/09 05:55:45;;;;;;;9.80;8.60;;;;;;;15.12;40.28;101550.35;109771;1270;23605;-82
2023/05/09 05:58:24;;;;;;;14.00;8.00;;;;;;;15.23;40.73;101553.09;109784;1270;22451;-82
2023/05/09 06:00:56;;;;;;;10.20;8.70;;;;;;;15.48;41.34;101559.69;109670;1270;21990;-83
2023/05/09 06:03:28;;;;;;;15.40;8.20;;;;;;;15.83;40.95;101563.08;110217;1270;23730;-82
2023/05/09 06:06:23;;;;;;;8.80;7.60;;;;;;;16.14;40.76;101563.72;110469;1270;21674;-82
2023/05/09 06:09:00;;;;;;;8.80;7.40;;;;;;;16.57;40.65;101559.61;109748;1270;22004;-82
2023/05/09 06:11:29;;;;;;;9.70;7.40;;;;;;;17.04;40.05;101558.26;109737;1273;23640;-83
2023/05/09 06:13:59;;;;;;;9.10;7.90;;;;;;;17.29;38.80;101558.51;109820;1273;22001;-82
2023/05/09 06:16:33;;;;;;;8.40;6.70;;;;;;;17.26;37.73;101555.65;109789;1273;22023;-85
2023/05/09 06:19:03;;;;;;;9.60;7.00;;;;;;;17.13;37.84;101555.02;109619;1273;22000;-82
2023/05/09 06:21:37;;;;;;;10.00;7.00;;;;;;;17.26;38.73;101553.21;109442;1276;23817;-77
2023/05/09 06:24:07;;;;;;;8.60;6.10;;;;;;;17.35;37.26;101555.58;109371;1276;23791;-79
2023/05/09 06:26:59;;;;;;;9.60;6.70;;;;;;;17.04;37.30;101550.20;109240;1277;24343;-85
2023/05/09 06:29:28;;;;;;;11.70;6.30;;;;;;;16.92;37.85;101550.02;109272;1277;22759;-83
2023/05/09 06:31:56;;;;;;;10.50;6.40;;;;;;;16.86;37.30;101554.50;108937;1284;22245;-80
2023/05/09 06:34:25;;;;;;;8.50;6.60;;;;;;;16.46;37.59;101548.83;108698;1284;22171;-83
2023/05/09 06:36:53;;;;;;;7.70;5.90;;;;;;;16.33;38.43;101548.67;108997;1283;22014;-83
2023/05/09 06:39:26;;;;;;;8.70;6.50;;;;;;;16.26;38.54;101543.73;109089;1277;23034;-84
2023/05/09 06:42:11;;;;;;;6.90;5.00;;;;;;;16.17;38.46;101535.35;109388;1277;22246;-82
2023/05/09 06:44:42;;;;;;;6.00;5.30;;;;;;;16.23;38.26;101536.85;109313;1277;22538;-83
2023/05/09 06:47:51;;;;;;;7.00;5.20;;;;;;;16.11;38.20;101543.64;108940;1283;22027;-83
2023/05/09 06:50:37;;;;;;;11.50;6.20;;;;;;;15.98;38.33;101534.02;107411;1276;2403700;-83
2023/05/09 06:53:16;;;;;;;10.60;5.60;;;;;;;16.18;38.66;101529.67;109397;1276;23036;-84
2023/05/09 06:55:53;;;;;;;5.60;4.80;;;;;;;16.42;37.59;101534.98;109409;1276;22013;-83
2023/05/09 06:58:28;;;;;;;6.90;5.20;;;;;;;16.33;37.44;101532.55;109328;1276;23705;-83
2023/05/09 07:01:12;;;;;;;6.00;5.30;;;;;;;16.22;37.84;101531.44;109177;1276;23722;-83
2023/05/09 07:03:51;;;;;;;6.30;5.00;;;;;;;16.36;38.20;101530.48;109018;1280;21973;-84
2023/05/09 07:06:29;;;;;;;5.50;4.90;;;;;;;16.45;36.87;101529.20;108997;1281;22010;-82
2023/05/09 07:09:02;;;;;;;6.30;4.20;;;;;;;16.34;36.29;101523.36;108955;1281;22056;-83
2023/05/09 07:11:59;;;;;;;7.20;4.60;;;;;;;16.53;36.68;101520.61;109016;1282;21988;-83
2023/05/09 07:14:28;;;;;;;5.70;4.70;;;;;;;16.89;36.37;101518.14;109000;1282;21808;-81
2023/05/09 07:17:00;;;;;;;8.20;4.90;;;;;;;17.12;35.77;101519.55;109001;1282;22757;-83
2023/05/09 07:19:57;;;;;;;6.10;4.00;;;;;;;16.95;35.14;101520.52;109046;1282;22221;-83
2023/05/09 07:22:59;;;;;;;6.40;4.90;;;;;;;16.74;35.27;101514.56;109110;1278;23714;-82
2023/05/09 07:25:30;;;;;;;4.90;4.10;;;;;;;16.63;35.53;101518.92;109629;1273;22000;-82
2023/05/09 07:28:02;;;;;;;7.00;4.70;;;;;;;16.41;34.90;101520.09;109513;1273;23656;-82
2023/05/09 07:30:33;;;;;;;5.90;4.50;;;;;;;16.17;35.26;101512.84;109744;1270;22023;-82
2023/05/09 07:33:06;;;;;;;6.60;3.90;;;;;;;16.15;35.49;101512.57;109819;1270;22972;-82
2023/05/09 07:35:39;;;;;;;8.80;4.80;;;;;;;16.35;35.83;101507.33;109634;1274;21988;-81
2023/05/09 07:38:39;;;;;;;5.10;4.10;;;;;;;16.78;35.64;101503.17;109637;1274;22022;-83
2023/05/09 07:41:11;;;;;;;5.30;4.00;;;;;;;17.09;34.51;101497.35;109605;1274;22072;-81
2023/05/09 07:43:53;;;;;;;8.60;3.30;;;;;;;17.25;34.21;101489.06;109774;1274;22477;-81
2023/05/09 07:46:39;;;;;;;10.30;3.90;;;;;;;17.35;33.75;101486.95;109636;1273;21965;-81
2023/05/09 07:49:11;;;;;;;;;;;;;;;17.37;33.38;101479.48;109906;1273;21972;-77
2023/05/09 07:52:01;;;;;;;4.50;3.50;;;;;;;17.39;33.42;101480.48;109798;1273;23656;-82
2023/05/09 07:54:53;;;;;;;6.10;3.70;;;;;;;17.24;32.88;101478.69;110015;1268;21993;-79
2023/05/09 07:57:29;;;;;;;10.90;3.90;;;;;;;17.06;31.77;101481.98;109878;1271;22669;-78
2023/05/09 08:00:22;;;;;;;5.40;3.20;;;;;;;16.95;31.39;101481.64;109834;1270;21994;-80
2023/05/09 08:03:00;;;;;;;4.70;2.40;;;;;;;17.13;31.64;101483.98;109699;1270;23005;-81
2023/05/09 08:05:55;;;;;;;;;;;;;;;;;;;;;
2023/05/09 08:08:38;;;;;;;9.90;3.40;;;;;;;17.63;30.04;101461.71;109453;1271;22947;-79
2023/05/09 08:11:06;;;;;;;4.10;3.00;;;;;;;17.44;29.11;101464.20;109416;1275;23733;-86
2023/05/09 08:13:42;;;;;;;4.30;2.60;;;;;;;17.34;30.08;101462.04;109593;1270;24006;-83
2023/05/09 08:16:44;;;;;;;9.40;3.40;;;;;;;17.20;29.81;101457.78;109516;1275;21983;-82
2023/05/09 08:19:34;;;;;;;4.50;2.40;;;;;;;17.29;30.04;101458.76;109541;1275;22007;-81
2023/05/09 08:22:20;;;;;;;9.70;3.30;;;;;;;17.33;29.30;101449.77;109650;1273;22447;-80
2023/05/09 08:25:08;;;;;;;4.50;2.60;;;;;;;17.16;29.24;101445.33;109451;1273;21984;-81
2023/05/09 08:27:39;;;;;;;6.00;2.70;;;;;;;17.06;29.56;101444.20;109779;1273;23109;-79
2023/05/09 08:30:35;;;;;;;4.20;2.50;;;;;;;17.16;29.87;101442.00;110036;1269;22003;-81
2023/05/09 08:33:43;;;;;;;;;;;;;;;;;;;;;
2023/05/09 08:36:33;;;;;;;10.00;2.90;;;;;;;17.55;29.72;101430.08;110128;1264;22347;-81
2023/05/09 08:39:33;;;;;;;3.90;2.50;;;;;;;17.84;29.86;101431.97;110348;1269;22044;-81
2023/05/09 08:42:14;;;;;;;6.30;3.10;;;;;;;18.03;29.43;101427.98;110055;1264;21988;-81
2023/05/09 08:45:03;;;;;;;6.10;3.00;;;;;;;18.04;29.71;101421.42;109890;1257;21976;-81
2023/05/09 08:47:41;;;;;;;11.30;5.10;;;;;;;18.32;30.22;101418.21;109987;1269;23727;-81
2023/05/09 08:50:22;;;;;;;5.90;3.40;;;;;;;18.67;29.49;101421.77;110125;1269;22385;-82
2023/05/09 08:53:13;;;;;;;5.70;3.10;;;;;;;18.82;28.81;101419.94;109612;1271;22440;-81
2023/05/09 08:55:53;;;;;;;9.80;2.80;;;;;;;18.85;28.47;101419.91;109411;1275;23753;-82
2023/05/09 08:58:35;;;;;;;4.40;2.80;;;;;;;18.74;28.61;101415.91;109368;1276;22029;-82
2023/05/09 09:01:28;;;;;;;6.40;3.00;;;;;;;18.76;28.40;101419.18;109197;1279;22747;-81
2023/05/09 09:04:14;;;;;;;3.50;2.30;;;;;;;18.72;27.96;101410.90;109104;1278;23507;-82
2023/05/09 09:07:24;;;;;;;;;;;;;;;;;;;;;
2023/05/09 09:10:27;;;;;;;5.80;3.00;;;;;;;18.54;27.65;101400.61;109283;1273;22070;-81
2023/05/09 09:13:05;;;;;;;7.70;2.40;;;;;;;18.69;28.14;101404.20;109747;1273;23715;-82
2023/05/09 09:15:48;;;;;;;4.50;2.30;;;;;;;18.92;27.96;101400.52;109429;1274;21978;-81
2023/05/09 09:18:39;;;;;;;4.00;2.30;;;;;;;19.04;27.46;101405.45;109303;1274;23736;-83
2023/05/09 09:21:19;;;;;;;6.50;2.00;;;;;;;18.95;26.80;101406.50;109600;1274;22397;-82
2023/05/09 09:23:59;;;;;;;8.00;2.30;;;;;;;18.82;26.64;101396.83;109651;1274;21994;-82
2023/05/09 09:26:49;;;;;;;;;;;;;;;18.80;26.82;101401.89;109542;1275;22047;-81
2023/05/09 09:29:35;;;;;;;7.10;2.30;;;;;;;18.40;26.82;101400.33;109528;1275;21993;-81
2023/05/09 09:32:18;;;;;;;5.30;2.00;;;;;;;18.14;27.22;101399.05;109560;1274;22618;-81
2023/05/09 09:35:17;;;;;;;5.30;1.80;;;;;;;18.15;27.64;101394.46;109987;1269;23736;-82
2023/05/09 09:38:48;;;;;;;9.90;2.20;;;;;;;18.19;27.28;101391.41;110148;1269;22447;-83
2023/05/09 09:41:43;;;;;;;6.20;1.90;;;;;;;18.24;27.32;101390.98;109477;1275;21988;-82
2023/05/09 09:44:41;;;;;;;4.00;2.00;;;;;;;18.15;26.73;101386.84;109583;1275;23039;-83
2023/05/09 09:47:53;;;;;;;3.60;2.40;;;;;;;18.19;26.90;101386.29;109530;1275;22301;-83
2023/05/09 09:50:36;;;;;;;11.20;2.50;;;;;;;18.06;26.73;101374.98;109599;1275;23113;-81
2023/05/09 09:53:34;;;;;;;4.10;2.40;;;;;;;18.02;27.15;101376.27;109639;1275;21998;-81
2023/05/09 09:56:20;;;;;;;4.30;1.90;;;;;;;18.23;27.23;101364.04;109661;1275;24649;-83
2023/05/09 09:59:11;;;;;;;5.30;1.80;;;;;;;18.38;26.38;101355.87;109623;1270;22433;-83
2023/05/09 10:02:03;;;;;;;4.00;1.90;;;;;;;18.47;26.56;101351.98;109590;1268;22749;-80
2023/05/09 10:04:42;;;;;;;7.20;2.50;;;;;;;18.51;26.65;101351.11;109531;1275;22474;-79
2023/05/09 10:07:24;;;;;;;4.80;1.90;;;;;;;18.43;26.41;101343.59;109535;1273;22042;-82
2023/05/09 10:10:04;;;;;;;7.40;2.40;;;;;;;18.43;26.41;101343.06;109532;1274;22090;-80
2023/05/09 10:12:57;;;;;;;5.70;2.00;;;;;;;18.36;26.11;101331.30;109815;1269;21987;-80
2023/05/09 10:15:37;;;;;;;7.20;2.00;;;;;;;18.30;26.30;101329.83;109644;1269;23722;-78
2023/05/09 10:18:30;;;;;;;3.70;1.80;;;;;;;18.28;26.02;101338.77;109795;1267;23748;-78
2023/05/09 10:21:02;;;;;;;6.80;2.00;;;;;;;18.14;26.05;101329.86;109488;1273;22464;-78
2023/05/09 10:23:45;;;;;;;5.40;2.40;;;;;;;18.24;26.65;101332.31;109231;1275;23616;-78
2023/05/09 10:26:26;;;;;;;3.30;1.90;;;;;;;18.40;26.81;101326.34;109324;1272;23076;-79
2023/05/09 10:29:21;;;;;;;6.80;2.40;;;;;;;18.36;26.31;101322.64;109179;1278;23721;-78
2023/05/09 10:32:13;;;;;;;6.60;2.00;;;;;;;18.26;26.66;101320.01;108920;1278;22025;-77
2023/05/09 10:35:07;;;;;;;5.70;2.20;;;;;;;18.32;26.63;101320.24;109118;1278;22575;-79
2023/05/09 10:41:04;;;;;;;2.40;1.60;;;;;;;18.14;26.91;101306.77;108990;1277;22210;-78
2023/05/09 10:43:47;;;;;;;8.20;2.50;;;;;;;17.91;26.78;101306.59;109209;1279;23052;-78
2023/05/09 10:46:26;;;;;;;5.50;2.90;;;;;;;17.72;27.01;101307.92;108982;1276;21983;-77
2023/05/09 10:49:00;;;;;;;4.30;2.20;;;;;;;17.72;27.51;101299.60;109327;1276;23523;-79
2023/05/09 10:51:34;;;;;;;7.00;2.30;;;;;;;17.73;27.41;101293.08;109307;1279;22005;-81
2023/05/09 10:54:15;;;;;;;6.40;2.80;;;;;;;17.59;27.32;101290.27;108883;1283;22010;-81
2023/05/09 10:56:58;;;;;;;5.70;2.50;;;;;;;17.47;27.67;101284.72;108858;1283;23845;-80
2023/05/09 10:59:46;;;;;;;2.50;1.90;;;;;;;17.32;27.57;101286.91;108611;1288;23062;-86
2023/05/09 11:02:20;;;;;;;4.80;2.10;;;;;;;17.10;27.75;101284.67;108526;1288;22024;-80
2023/05/09 11:05:13;;;;;;;3.70;2.00;;;;;;;16.99;28.07;101273.13;107957;1293;22316;-78
2023/05/09 11:07:42;;;;;;;3.00;1.70;;;;;;;17.03;28.43;101270.42;108102;1293;23107;-83
2023/05/09 11:10:23;;;;;;;7.10;2.30;;;;;;;17.17;28.58;101268.86;108184;1288;23022;-81
2023/05/09 11:13:10;;;;;;;8.00;2.40;;;;;;;17.23;28.49;101268.37;108382;1287;22042;-83
2023/05/09 11:16:08;;;;;;;3.50;2.60;;;;;;;17.14;28.17;101264.78;108082;1284;23672;-79
2023/05/09 11:18:52;;;;;;;5.10;2.30;;;;;;;17.01;28.31;101249.96;108811;1280;23795;-84
2023/05/09 11:21:21;;;;;;;7.30;2.90;;;;;;;16.98;28.75;101248.05;108885;1280;21998;-79
2023/05/09 11:23:55;;;;;;;4.60;2.00;;;;;;;17.03;28.61;101248.83;109393;1274;22410;-83
2023/05/09 11:26:36;;;;;;;8.40;1.90;;;;;;;16.97;28.54;101242.60;109508;1273;22062;-82
2023/05/09 11:29:12;;;;;;;5.40;2.10;;;;;;;16.91;28.44;101235.73;109418;1277;22473;-80
2023/05/09 11:32:20;;;;;;;7.90;2.70;;;;;;;16.85;28.64;101233.36;109354;1277;22032;-81
2023/05/09 11:35:32;;;;;;;9.40;2.60;;;;;;;16.90;28.62;101232.27;109163;1277;21989;-82
2023/05/09 11:38:09;;;;;;;4.50;1.90;;;;;;;16.89;28.31;101224.58;108946;1283;24401;-80
2023/05/09 11:40:48;;;;;;;5.00;2.40;;;;;;;16.89;28.35;101213.66;108666;1287;24649;-81
2023/05/09 11:43:30;;;;;;;4.50;2.00;;;;;;;16.95;28.34;101212.29;108658;1287;22012;-80
2023/05/09 11:46:08;;;;;;;5.50;2.00;;;;;;;16.88;27.96;101207.56;108660;1286;23636;-81
2023/05/09 11:48:41;;;;;;;4.20;2.30;;;;;;;16.78;28.14;101196.95;108964;1280;24357;-81
2023/05/09 11:51:21;;;;;;;12.60;2.80;;;;;;;16.79;28.42;101193.57;108948;1281;21997;-82
2023/05/09 11:53:58;;;;;;;7.10;2.00;;;;;;;16.88;28.56;101192.08;108994;1281;22918;-79
2023/05/09 11:56:45;;;;;;;4.10;1.80;;;;;;;16.89;28.34;101197.84;108692;1286;22379;-81
2023/05/09 11:59:29;;;;;;;7.20;2.30;;;;;;;16.78;28.26;101196.46;108844;1281;22031;-81
2023/05/09 12:02:13;;;;;;;6.20;2.50;;;;;;;16.74;28.40;101180.45;108940;1280;22565;-82
2023/05/09 12:05:09;;;;;;;8.40;2.30;;;;;;;16.84;28.58;101173.33;109007;1280;21897;-81
2023/05/09 12:07:52;;;;;;;11.30;2.30;;;;;;;16.92;28.00;101172.73;109046;1279;22004;-82
2023/05/09 12:10:58;;;;;;;7.20;2.10;;;;;;;16.84;27.84;101170.81;108877;1285;23766;-81
2023/05/09 12:13:34;;;;;;;6.60;2.60;;;;;;;16.87;28.19;101173.16;108876;1279;24336;-83